createdAt,value
2018-06-13T00:01:42.875Z,77.63
2018-06-13T00:04:11.629Z,72.60
2018-06-13T00:06:40.364Z,72.73
2018-06-13T00:09:09.565Z,72.57
2018-06-13T00:11:38.323Z,72.75
2018-06-13T00:14:06.976Z,74.65
2018-06-13T00:16:35.858Z,73.69
2018-06-13T00:19:04.474Z,73.45
2018-06-13T00:21:33.215Z,77.23
2018-06-13T00:24:02.172Z,71.02
2018-06-13T00:26:30.853Z,73.42
2018-06-13T00:28:59.617Z,71.50
2018-06-13T00:31:28.336Z,70.82
2018-06-13T00:33:56.959Z,70.60
2018-06-13T00:36:25.663Z,69.46
2018-06-13T00:38:54.375Z,69.76
2018-06-13T00:41:23.170Z,70.73
2018-06-13T00:43:51.861Z,66.73
2018-06-13T00:46:20.650Z,68.57
2018-06-13T00:48:49.351Z,71.04
2018-06-13T00:51:17.965Z,72.18
2018-06-13T00:53:46.642Z,69.85
2018-06-13T00:56:26.385Z,69.05
2018-06-13T00:58:55.056Z,67.82
2018-06-13T01:01:23.803Z,68.26
2018-06-13T01:03:52.424Z,71.60
2018-06-13T01:06:21.255Z,70.69
2018-06-13T01:08:49.946Z,69.87
2018-06-13T01:11:18.690Z,68.60
2018-06-13T01:13:47.457Z,63.98
2018-06-13T01:16:16.315Z,68.98
2018-06-13T01:18:45.071Z,70.03
2018-06-13T01:21:13.727Z,67.26
2018-06-13T01:23:42.418Z,67.27
2018-06-13T01:26:11.152Z,71.45
2018-06-13T01:28:39.958Z,68.96
2018-06-13T01:31:08.634Z,69.73
2018-06-13T01:33:37.457Z,71.19
2018-06-13T01:36:06.294Z,65.69
2018-06-13T01:38:35.089Z,69.22
2018-06-13T01:41:03.785Z,66.87
2018-06-13T01:43:32.484Z,71.06
2018-06-13T01:46:01.201Z,70.06
2018-06-13T01:48:29.869Z,67.62
2018-06-13T01:50:59.174Z,71.35
2018-06-13T01:53:29.545Z,71.68
2018-06-13T01:55:58.351Z,69.46
2018-06-13T01:58:27.047Z,64.59
2018-06-13T02:00:55.689Z,66.11
2018-06-13T02:03:24.323Z,68.40
2018-06-13T02:05:53.041Z,69.00
2018-06-13T02:08:21.662Z,69.30
2018-06-13T02:10:50.287Z,64.59
2018-06-13T02:13:18.947Z,66.14
2018-06-13T02:15:47.749Z,65.43
2018-06-13T02:18:16.493Z,65.41
2018-06-13T02:20:45.238Z,66.95
2018-06-13T02:23:14.046Z,66.67
2018-06-13T02:25:42.700Z,66.75
2018-06-13T02:28:11.497Z,67.18
2018-06-13T02:30:40.142Z,66.83
2018-06-13T02:33:08.663Z,69.22
2018-06-13T02:35:37.315Z,71.42
2018-06-13T02:38:06.122Z,68.57
2018-06-13T02:40:35.448Z,70.55
2018-06-13T02:43:04.214Z,72.72
2018-06-13T02:45:32.894Z,69.36
2018-06-13T02:48:01.756Z,71.23
2018-06-13T02:50:30.666Z,71.95
2018-06-13T02:52:59.254Z,71.43
2018-06-13T02:55:27.969Z,66.53
2018-06-13T02:57:56.657Z,65.15
2018-06-13T03:00:25.269Z,66.78
2018-06-13T03:02:53.881Z,62.86
2018-06-13T03:05:22.465Z,69.89
2018-06-13T03:07:51.136Z,69.64
2018-06-13T03:10:19.786Z,65.74
2018-06-13T03:12:48.450Z,66.37
2018-06-13T03:15:17.061Z,65.66
2018-06-13T03:17:45.633Z,64.57
2018-06-13T03:20:14.417Z,66.10
2018-06-13T03:22:43.068Z,62.26
2018-06-13T03:25:11.675Z,65.97
2018-06-13T03:27:40.304Z,61.64
2018-06-13T03:30:08.952Z,62.06
2018-06-13T03:32:37.548Z,59.27
2018-06-13T03:35:06.253Z,63.72
2018-06-13T03:37:34.934Z,63.56
2018-06-13T03:40:03.587Z,60.89
2018-06-13T03:42:32.255Z,63.98
2018-06-13T03:45:00.877Z,62.56
2018-06-13T03:47:29.846Z,61.25
2018-06-13T03:49:58.529Z,58.56
2018-06-13T03:52:27.420Z,62.62
2018-06-13T03:54:56.054Z,60.53
2018-06-13T03:57:24.731Z,62.36
2018-06-13T03:59:53.483Z,63.08
2018-06-13T04:02:22.157Z,64.42
2018-06-13T04:04:50.793Z,60.66
2018-06-13T04:07:19.642Z,59.01
2018-06-13T04:09:48.527Z,56.76
2018-06-13T04:12:17.198Z,59.98
2018-06-13T04:14:45.819Z,63.78
2018-06-13T04:17:14.526Z,62.81
2018-06-13T04:19:43.473Z,62.92
2018-06-13T04:22:12.133Z,63.66
2018-06-13T04:24:40.779Z,63.16
2018-06-13T04:27:09.481Z,59.84
2018-06-13T04:29:38.204Z,61.31
2018-06-13T04:32:06.896Z,65.56
2018-06-13T04:34:35.602Z,63.06
2018-06-13T04:37:04.311Z,64.13
2018-06-13T04:39:32.969Z,58.39
2018-06-13T04:42:01.722Z,58.34
2018-06-13T04:44:30.421Z,60.55
2018-06-13T04:46:59.096Z,61.87
2018-06-13T04:49:27.815Z,62.26
2018-06-13T04:51:56.599Z,61.11
2018-06-13T04:54:25.193Z,64.16
2018-06-13T04:56:53.924Z,61.43
2018-06-13T04:59:22.636Z,60.72
2018-06-13T05:01:51.526Z,61.19
2018-06-13T05:04:20.175Z,60.45
2018-06-13T05:06:48.869Z,62.01
2018-06-13T05:09:17.797Z,62.14
2018-06-13T05:11:46.382Z,63.68
2018-06-13T05:14:15.100Z,59.47
2018-06-13T05:16:43.775Z,59.17
2018-06-13T05:19:12.470Z,58.38
2018-06-13T05:21:41.300Z,61.47
2018-06-13T05:24:09.981Z,61.14
2018-06-13T05:26:38.645Z,59.66
2018-06-13T05:29:07.476Z,63.23
2018-06-13T05:31:36.124Z,66.14
2018-06-13T05:34:04.872Z,61.33
2018-06-13T05:36:33.511Z,62.98
2018-06-13T05:39:02.222Z,63.48
2018-06-13T05:41:30.793Z,63.40
2018-06-13T05:43:59.526Z,60.52
2018-06-13T05:46:28.344Z,62.86
2018-06-13T05:48:57.144Z,62.95
2018-06-13T05:51:25.858Z,61.75
2018-06-13T05:53:54.544Z,62.63
2018-06-13T05:56:23.154Z,63.96
2018-06-13T05:58:51.859Z,59.62
2018-06-13T06:01:20.781Z,60.29
2018-06-13T06:03:49.449Z,59.28
2018-06-13T06:06:18.204Z,59.38
2018-06-13T06:08:46.910Z,57.89
2018-06-13T06:11:15.639Z,55.18
2018-06-13T06:13:44.442Z,58.59
2018-06-13T06:16:13.125Z,57.16
2018-06-13T06:18:41.827Z,56.91
2018-06-13T06:21:10.571Z,56.08
2018-06-13T06:23:39.220Z,55.03
2018-06-13T06:26:07.890Z,60.10
2018-06-13T06:28:36.644Z,56.97
2018-06-13T06:31:05.456Z,58.54
2018-06-13T06:33:34.125Z,57.14
2018-06-13T06:36:02.833Z,60.77
2018-06-13T06:38:32.431Z,58.13
2018-06-13T06:41:01.166Z,53.86
2018-06-13T06:43:29.874Z,57.90
2018-06-13T06:45:58.538Z,54.60
2018-06-13T06:48:27.273Z,57.72
2018-06-13T06:50:55.982Z,54.80
2018-06-13T06:53:24.552Z,52.84
2018-06-13T06:55:53.251Z,51.73
2018-06-13T06:58:22.060Z,53.96
2018-06-13T07:00:50.768Z,53.22
2018-06-13T07:03:19.513Z,53.52
2018-06-13T07:05:48.221Z,51.56
2018-06-13T07:08:17.053Z,50.95
2018-06-13T07:10:45.699Z,46.47
2018-06-13T07:13:14.359Z,51.11
2018-06-13T07:15:42.983Z,48.43
2018-06-13T07:18:11.643Z,47.96
2018-06-13T07:20:40.527Z,46.58
2018-06-13T07:23:09.212Z,47.17
2018-06-13T07:25:37.828Z,47.55
2018-06-13T07:28:06.541Z,50.04
2018-06-13T07:30:35.241Z,45.68
2018-06-13T07:33:04.016Z,48.40
2018-06-13T07:35:32.846Z,49.29
2018-06-13T07:38:01.505Z,47.58
2018-06-13T07:40:30.120Z,47.77
2018-06-13T07:42:58.777Z,51.60
2018-06-13T07:45:27.485Z,54.39
2018-06-13T07:47:56.127Z,49.21
2018-06-13T07:50:25.002Z,47.73
2018-06-13T07:52:53.997Z,47.22
2018-06-13T07:55:22.836Z,48.67
2018-06-13T07:57:51.686Z,46.30
2018-06-13T08:00:20.415Z,47.58
2018-06-13T08:02:49.097Z,49.55
2018-06-13T08:05:17.790Z,47.19
2018-06-13T08:07:46.388Z,45.53
2018-06-13T08:10:15.078Z,47.35
2018-06-13T08:12:43.788Z,46.88
2018-06-13T08:15:12.393Z,48.72
2018-06-13T08:17:41.220Z,48.63
2018-06-13T08:20:09.881Z,48.42
2018-06-13T08:22:38.542Z,49.52
2018-06-13T08:25:07.270Z,46.83
2018-06-13T08:27:41.817Z,46.46
2018-06-13T08:30:10.510Z,46.69
2018-06-13T08:32:39.186Z,47.31
2018-06-13T08:35:08.506Z,45.57
2018-06-13T08:37:37.297Z,44.27
2018-06-13T08:40:06.822Z,49.49
2018-06-13T08:42:35.863Z,48.15
2018-06-13T08:45:05.470Z,46.64
2018-06-13T08:47:34.736Z,50.34
2018-06-13T08:50:04.100Z,49.50
2018-06-13T08:52:33.363Z,52.23
2018-06-13T08:55:02.827Z,52.10
2018-06-13T08:57:32.079Z,50.50
2018-06-13T09:00:02.002Z,50.77
2018-06-13T09:02:31.539Z,46.01
2018-06-13T09:05:00.207Z,49.40
2018-06-13T09:07:28.870Z,47.81
2018-06-13T09:09:57.913Z,47.33
2018-06-13T09:12:27.056Z,49.37
2018-06-13T09:14:55.854Z,47.04
2018-06-13T09:17:24.492Z,46.25
2018-06-13T09:19:53.083Z,48.79
2018-06-13T09:22:21.747Z,47.88
2018-06-13T09:24:50.405Z,46.32
2018-06-13T09:27:19.225Z,49.33
2018-06-13T09:29:48.123Z,47.50
2018-06-13T09:32:16.987Z,46.45
2018-06-13T09:34:46.133Z,50.51
2018-06-13T09:37:14.851Z,49.03
2018-06-13T09:39:43.493Z,48.58
2018-06-13T09:42:12.368Z,50.33
2018-06-13T09:44:40.968Z,48.16
2018-06-13T09:47:15.137Z,52.92
2018-06-13T09:49:38.407Z,46.70
2018-06-13T09:52:07.404Z,47.93
2018-06-13T09:54:36.201Z,50.36
2018-06-13T09:57:04.858Z,49.40
2018-06-13T09:59:36.778Z,46.60
2018-06-13T10:02:10.457Z,47.84
2018-06-13T10:04:39.017Z,43.57
2018-06-13T10:07:07.761Z,43.47
2018-06-13T10:09:36.638Z,44.29
2018-06-13T10:12:05.456Z,43.86
2018-06-13T10:14:34.075Z,45.04
2018-06-13T10:17:02.700Z,46.50
2018-06-13T10:19:31.269Z,47.50
2018-06-13T10:22:00.093Z,49.26
2018-06-13T10:24:28.955Z,48.89
2018-06-13T10:26:57.579Z,48.01
2018-06-13T10:29:26.195Z,50.54
2018-06-13T10:31:55.059Z,45.69
2018-06-13T10:34:23.768Z,47.62
2018-06-13T10:36:52.765Z,51.47
2018-06-13T10:39:21.445Z,47.80
2018-06-13T10:41:50.132Z,48.86
2018-06-13T10:44:18.958Z,48.08
2018-06-13T10:46:47.559Z,46.06
2018-06-13T10:49:16.399Z,47.56
2018-06-13T10:51:45.068Z,49.18
2018-06-13T10:54:13.821Z,44.59
2018-06-13T10:56:42.397Z,48.45
2018-06-13T10:59:11.171Z,47.30
2018-06-13T11:01:39.875Z,46.76
2018-06-13T11:04:08.461Z,42.48
2018-06-13T11:06:37.107Z,46.15
2018-06-13T11:09:08.338Z,42.38
2018-06-13T11:11:37.037Z,41.29
2018-06-13T11:14:05.856Z,40.69
2018-06-13T11:16:34.476Z,38.09
2018-06-13T11:19:03.157Z,43.80
2018-06-13T11:21:31.773Z,38.74
2018-06-13T11:24:00.395Z,38.88
2018-06-13T11:26:29.202Z,38.46
2018-06-13T11:28:57.927Z,33.83
2018-06-13T11:31:26.690Z,37.87
2018-06-13T11:33:55.401Z,35.69
2018-06-13T11:36:56.351Z,33.49
2018-06-13T11:39:30.380Z,35.74
2018-06-13T11:41:59.177Z,37.19
2018-06-13T11:44:32.433Z,39.30
2018-06-13T11:47:01.068Z,37.83
2018-06-13T11:49:29.628Z,37.35
2018-06-13T11:51:58.407Z,37.29
2018-06-13T11:54:27.212Z,37.50
2018-06-13T11:56:56.166Z,38.52
2018-06-13T11:59:25.167Z,39.03
2018-06-13T12:01:53.718Z,39.03
2018-06-13T12:04:22.522Z,39.75
2018-06-13T12:06:51.813Z,40.34
2018-06-13T12:09:20.684Z,40.22
2018-06-13T12:11:49.218Z,43.57
2018-06-13T12:14:17.893Z,44.43
2018-06-13T12:16:46.807Z,43.35
2018-06-13T12:19:15.435Z,43.20
2018-06-13T12:21:44.034Z,44.71
2018-06-13T12:24:12.791Z,49.84
2018-06-13T12:26:41.398Z,45.40
2018-06-13T12:29:10.348Z,43.65
2018-06-13T12:31:39.266Z,46.53
2018-06-13T12:34:07.940Z,45.52
2018-06-13T12:36:36.671Z,43.10
2018-06-13T12:39:07.866Z,48.12
2018-06-13T12:41:36.428Z,40.23
2018-06-13T12:44:05.127Z,42.62
2018-06-13T12:46:33.692Z,40.53
2018-06-13T12:49:02.566Z,43.32
2018-06-13T12:51:31.208Z,41.07
2018-06-13T12:53:59.801Z,43.19
2018-06-13T12:56:28.419Z,40.06
2018-06-13T12:58:57.227Z,39.68
2018-06-13T13:01:26.431Z,36.82
2018-06-13T13:03:55.129Z,35.28
2018-06-13T13:06:23.847Z,33.89
2018-06-13T13:08:52.739Z,34.77
2018-06-13T13:11:21.480Z,36.34
2018-06-13T13:13:50.174Z,30.93
2018-06-13T13:16:18.851Z,31.17
2018-06-13T13:18:47.484Z,32.77
2018-06-13T13:21:16.100Z,36.19
2018-06-13T13:23:44.744Z,33.20
2018-06-13T13:26:13.411Z,40.52
2018-06-13T13:28:42.178Z,37.25
2018-06-13T13:31:10.766Z,44.87
2018-06-13T13:33:39.575Z,40.70
2018-06-13T13:36:08.221Z,42.81
2018-06-13T13:38:37.038Z,44.03
2018-06-13T13:41:05.734Z,43.92
2018-06-13T13:43:34.317Z,48.96
2018-06-13T13:46:03.027Z,46.80
2018-06-13T13:48:31.886Z,45.50
2018-06-13T13:51:00.446Z,42.83
2018-06-13T13:53:28.968Z,43.26
2018-06-13T13:55:57.514Z,44.05
2018-06-13T13:58:26.276Z,42.72
2018-06-13T14:00:54.880Z,40.49
2018-06-13T14:03:23.462Z,45.14
2018-06-13T14:05:52.128Z,38.31
2018-06-13T14:08:20.680Z,39.68
2018-06-13T14:10:49.387Z,42.66
2018-06-13T14:13:18.191Z,35.55
2018-06-13T14:15:46.841Z,34.69
2018-06-13T14:18:15.446Z,34.13
2018-06-13T14:20:44.136Z,32.75
2018-06-13T14:23:12.718Z,30.04
2018-06-13T14:25:41.341Z,33.90
2018-06-13T14:28:09.937Z,28.06
2018-06-13T14:30:38.522Z,33.01
2018-06-13T14:33:07.294Z,33.20
2018-06-13T14:35:35.961Z,35.03
2018-06-13T14:38:04.703Z,36.60
2018-06-13T14:40:33.310Z,36.65
2018-06-13T14:43:01.916Z,35.03
2018-06-13T14:45:30.680Z,36.14
2018-06-13T14:47:59.388Z,36.35
2018-06-13T14:50:28.063Z,39.00
2018-06-13T14:52:56.659Z,35.66
2018-06-13T14:55:25.305Z,41.72
2018-06-13T14:57:53.898Z,38.42
2018-06-13T15:00:22.599Z,37.31
2018-06-13T15:02:51.222Z,39.50
2018-06-13T15:05:19.977Z,42.03
2018-06-13T15:07:48.577Z,42.03
2018-06-13T15:10:17.186Z,40.32
2018-06-13T15:12:45.849Z,39.04
2018-06-13T15:15:14.488Z,38.50
2018-06-13T15:17:43.120Z,39.62
2018-06-13T15:20:11.758Z,39.99
2018-06-13T15:22:40.298Z,38.31
2018-06-13T15:25:09.107Z,39.40
2018-06-13T15:27:37.746Z,38.18
2018-06-13T15:30:06.490Z,41.99
2018-06-13T15:32:35.217Z,41.16
2018-06-13T15:35:03.963Z,40.65
2018-06-13T15:37:33.079Z,41.92
2018-06-13T15:40:01.890Z,43.56
2018-06-13T15:42:30.574Z,44.55
2018-06-13T15:44:59.239Z,43.99
2018-06-13T15:47:27.897Z,44.14
2018-06-13T15:49:56.483Z,45.21
2018-06-13T15:52:25.576Z,44.87
2018-06-13T15:54:54.310Z,44.54
2018-06-13T15:57:22.966Z,44.49
2018-06-13T15:59:51.652Z,45.13
2018-06-13T16:02:20.323Z,45.33
2018-06-13T16:04:48.889Z,44.37
2018-06-13T16:07:17.519Z,45.00
2018-06-13T16:09:46.250Z,44.93
2018-06-13T16:12:14.886Z,43.85
2018-06-13T16:14:43.490Z,43.33
2018-06-13T16:17:12.263Z,42.71
2018-06-13T16:19:40.861Z,43.78
2018-06-13T16:22:09.451Z,43.69
2018-06-13T16:24:38.137Z,43.69
2018-06-13T16:27:06.888Z,43.95
2018-06-13T16:29:35.608Z,42.20
2018-06-13T16:32:04.174Z,42.60
2018-06-13T16:34:33.033Z,43.23
2018-06-13T16:37:01.629Z,44.27
2018-06-13T16:39:30.360Z,46.96
2018-06-13T16:41:59.187Z,44.94
2018-06-13T16:44:28.980Z,46.19
2018-06-13T16:46:57.776Z,44.75
2018-06-13T16:49:26.377Z,44.12
2018-06-13T16:51:57.102Z,44.93
2018-06-13T16:54:36.853Z,47.17
2018-06-13T16:57:05.546Z,44.95
2018-06-13T16:59:34.279Z,43.18
2018-06-13T17:23:21.930Z,44.83
2018-06-13T17:25:54.764Z,44.69
2018-06-13T17:28:23.721Z,46.31
2018-06-13T17:30:52.623Z,45.05
2018-06-13T17:33:21.390Z,45.00
2018-06-13T17:35:50.169Z,45.59
2018-06-13T17:38:19.594Z,46.31
2018-06-13T17:40:48.346Z,45.67
2018-06-13T17:43:17.113Z,49.50
2018-06-13T17:45:45.967Z,45.42
2018-06-13T17:48:14.680Z,45.86
2018-06-13T17:50:43.602Z,45.43
2018-06-13T17:53:12.418Z,47.13
2018-06-13T17:55:41.212Z,45.74
2018-06-13T17:58:09.991Z,46.54
2018-06-13T18:00:38.869Z,47.39
2018-06-13T18:03:08.057Z,47.58
2018-06-13T18:05:36.896Z,53.09
2018-06-13T18:08:05.576Z,49.88
2018-06-13T18:10:34.347Z,47.62
2018-06-13T18:13:03.082Z,49.22
2018-06-13T18:15:31.869Z,49.40
2018-06-13T18:18:00.620Z,47.32
2018-06-13T18:20:29.247Z,48.07
2018-06-13T18:22:57.968Z,50.27
2018-06-13T18:25:26.872Z,47.77
2018-06-13T18:27:55.631Z,50.03
2018-06-13T18:30:24.390Z,49.46
2018-06-13T18:32:53.104Z,48.22
2018-06-13T18:35:21.840Z,48.42
2018-06-13T18:37:50.692Z,49.37
2018-06-13T18:40:19.542Z,49.20
2018-06-13T18:42:48.229Z,50.48
2018-06-13T18:45:16.973Z,55.00
2018-06-13T18:47:45.719Z,50.34
2018-06-13T18:50:14.345Z,49.49
2018-06-13T18:52:43.073Z,50.09
2018-06-13T18:55:11.843Z,50.28
2018-06-13T18:57:40.585Z,51.83
2018-06-13T19:00:09.233Z,50.21
2018-06-13T19:02:38.149Z,51.17
2018-06-13T19:05:06.872Z,51.43
2018-06-13T19:07:35.701Z,51.09
2018-06-13T19:10:04.449Z,50.09
2018-06-13T19:12:33.495Z,51.07
2018-06-13T19:15:02.303Z,52.01
2018-06-13T19:17:31.170Z,52.64
2018-06-13T19:19:59.863Z,51.77
2018-06-13T19:22:28.641Z,51.52
2018-06-13T19:24:57.423Z,52.52
2018-06-13T19:27:26.214Z,51.03
2018-06-13T19:29:54.997Z,50.85
2018-06-13T19:32:23.794Z,54.31
2018-06-13T19:34:52.590Z,50.91
2018-06-13T19:37:21.426Z,51.68
2018-06-13T19:39:50.207Z,51.69
2018-06-13T19:42:19.101Z,52.06
2018-06-13T19:44:48.028Z,55.61
2018-06-13T19:47:23.620Z,53.87
2018-06-13T19:49:58.221Z,51.86
2018-06-13T19:52:32.997Z,50.67
2018-06-13T19:55:06.992Z,51.05
2018-06-13T19:57:39.182Z,52.49
2018-06-13T20:00:08.149Z,52.07
2018-06-13T20:02:42.196Z,56.57
2018-06-13T20:05:16.203Z,52.48
2018-06-13T20:07:44.977Z,54.61
2018-06-13T20:10:13.773Z,54.23
2018-06-13T20:12:47.686Z,54.29
2018-06-13T20:15:21.660Z,53.83
2018-06-13T20:17:55.745Z,53.21
2018-06-13T20:20:24.594Z,56.07
2018-06-13T20:22:53.582Z,51.38
2018-06-13T20:25:27.491Z,52.04
2018-06-13T20:28:01.521Z,53.45
2018-06-13T20:30:35.408Z,54.69
2018-06-13T20:33:04.345Z,54.00
2018-06-13T20:35:33.037Z,53.48
2018-06-13T20:38:01.916Z,54.98
2018-06-13T20:40:30.710Z,54.66
2018-06-13T20:50:04.967Z,53.74
2018-06-13T20:52:34.169Z,52.87
2018-06-13T20:55:03.280Z,54.67
2018-06-13T20:57:32.165Z,55.30
2018-06-13T21:00:01.229Z,56.18
2018-06-13T21:02:30.252Z,54.45
2018-06-13T21:04:59.090Z,54.55
2018-06-13T21:07:28.712Z,55.24
2018-06-13T21:09:57.652Z,55.40
2018-06-13T21:12:26.874Z,54.43
2018-06-13T21:14:56.737Z,59.18
2018-06-13T21:17:26.230Z,62.65
2018-06-13T21:19:56.662Z,60.23
2018-06-13T21:22:25.944Z,55.18
2018-06-13T21:24:55.322Z,54.72
2018-06-13T21:27:24.411Z,54.08
2018-06-13T21:29:53.652Z,54.75
2018-06-13T21:32:24.089Z,54.96
2018-06-13T21:34:53.004Z,56.91
2018-06-13T21:37:21.791Z,54.85
2018-06-13T21:39:50.569Z,55.60
2018-06-13T21:48:15.103Z,54.73
2018-06-13T21:50:44.923Z,55.24
2018-06-13T21:53:14.016Z,55.17
2018-06-13T21:55:43.417Z,55.14
2018-06-13T21:58:13.506Z,58.47
2018-06-13T22:00:43.837Z,56.15
2018-06-13T22:03:13.359Z,55.33
2018-06-13T22:05:42.415Z,55.34
2018-06-13T22:08:11.550Z,57.36
2018-06-13T22:10:40.762Z,58.35
2018-06-13T22:13:09.662Z,55.44
2018-06-13T22:15:38.676Z,57.20
2018-06-13T22:18:07.600Z,56.16
2018-06-13T22:20:36.703Z,57.67
2018-06-13T22:23:05.443Z,57.02
2018-06-13T22:25:34.664Z,56.14
2018-06-13T22:28:03.872Z,57.46
2018-06-13T22:30:33.601Z,56.95
2018-06-13T22:33:03.732Z,56.71
2018-06-13T22:35:33.275Z,57.43
2018-06-13T22:38:02.969Z,57.09
2018-06-13T22:40:31.950Z,57.77
2018-06-13T22:43:01.117Z,57.18
2018-06-13T22:45:30.058Z,57.49
2018-06-13T22:47:58.898Z,56.49
2018-06-13T22:50:27.773Z,59.13
2018-06-13T22:52:56.776Z,57.01
2018-06-13T22:55:26.951Z,57.21
2018-06-13T22:57:55.789Z,57.31
2018-06-13T23:00:36.660Z,58.24
2018-06-13T23:03:05.699Z,58.63
2018-06-13T23:05:34.792Z,59.90
2018-06-13T23:08:03.849Z,58.49
2018-06-13T23:10:33.283Z,56.73
2018-06-13T23:13:03.284Z,57.30
2018-06-13T23:15:32.427Z,58.67
2018-06-13T23:18:01.289Z,57.79
2018-06-13T23:20:30.415Z,57.73
2018-06-13T23:22:59.931Z,58.89
2018-06-13T23:25:29.198Z,57.83
2018-06-13T23:27:58.173Z,59.62
2018-06-13T23:30:27.186Z,57.66
2018-06-13T23:32:56.386Z,59.33
2018-06-13T23:35:25.476Z,58.83
2018-06-13T23:37:55.290Z,58.19
2018-06-13T23:40:24.036Z,57.38
2018-06-13T23:42:53.111Z,58.44
2018-06-13T23:45:22.742Z,57.48
2018-06-13T23:47:52.672Z,58.50
2018-06-13T23:50:21.819Z,58.07
2018-06-13T23:52:58.026Z,60.00
2018-06-13T23:55:42.969Z,58.86
2018-06-13T23:58:21.387Z,58.23
